sensor_id;sensor_type;location;lat;lon;timestamp;P1;durP1;ratioP1;P2;durP2;ratioP2
1154;SDS011;566;48.414;9.118;2023-07-28T00:02:19;4.82;;;2.40;;
1154;SDS011;566;48.414;9.118;2023-07-28T00:04:44;4.25;;;2.38;;
1154;SDS011;566;48.414;9.118;2023-07-28T00:07:10;5.00;;;2.30;;
1154;SDS011;566;48.414;9.118;2023-07-28T00:09:35;4.20;;;2.10;;
1154;SDS011;566;48.414;9.118;2023-07-28T00:12:01;6.47;;;2.85;;
1154;SDS011;566;48.414;9.118;2023-07-28T00:14:30;4.47;;;2.15;;
1154;SDS011;566;48.414;9.118;2023-07-28T00:16:56;4.47;;;2.25;;
1154;SDS011;566;48.414;9.118;2023-07-28T00:19:22;5.82;;;2.17;;
1154;SDS011;566;48.414;9.118;2023-07-28T00:21:48;6.18;;;1.95;;
1154;SDS011;566;48.414;9.118;2023-07-28T00:24:15;5.47;;;2.15;;
1154;SDS011;566;48.414;9.118;2023-07-28T00:26:41;3.78;;;2.00;;
1154;SDS011;566;48.414;9.118;2023-07-28T00:29:07;6.32;;;1.80;;
1154;SDS011;566;48.414;9.118;2023-07-28T00:31:33;5.68;;;2.17;;
1154;SDS011;566;48.414;9.118;2023-07-28T00:33:59;3.97;;;2.08;;
1154;SDS011;566;48.414;9.118;2023-07-28T00:36:24;4.63;;;1.90;;
1154;SDS011;566;48.414;9.118;2023-07-28T00:38:50;6.10;;;2.25;;
1154;SDS011;566;48.414;9.118;2023-07-28T00:41:16;4.35;;;2.22;;
1154;SDS011;566;48.414;9.118;2023-07-28T00:43:41;6.13;;;2.20;;
1154;SDS011;566;48.414;9.118;2023-07-28T00:46:07;5.07;;;2.20;;
1154;SDS011;566;48.414;9.118;2023-07-28T00:48:35;5.07;;;2.17;;
1154;SDS011;566;48.414;9.118;2023-07-28T00:51:00;4.40;;;2.40;;
1154;SDS011;566;48.414;9.118;2023-07-28T00:53:26;4.65;;;2.50;;
1154;SDS011;566;48.414;9.118;2023-07-28T00:55:53;5.10;;;2.08;;
1154;SDS011;566;48.414;9.118;2023-07-28T00:58:20;5.38;;;2.60;;
1154;SDS011;566;48.414;9.118;2023-07-28T01:00:46;4.53;;;2.60;;
1154;SDS011;566;48.414;9.118;2023-07-28T01:03:12;4.70;;;2.30;;
1154;SDS011;566;48.414;9.118;2023-07-28T01:05:44;6.25;;;2.30;;
1154;SDS011;566;48.414;9.118;2023-07-28T01:08:17;5.05;;;2.50;;
1154;SDS011;566;48.414;9.118;2023-07-28T01:10:49;7.30;;;3.17;;
1154;SDS011;566;48.414;9.118;2023-07-28T01:13:15;3.80;;;2.22;;
1154;SDS011;566;48.414;9.118;2023-07-28T01:15:41;4.07;;;2.38;;
1154;SDS011;566;48.414;9.118;2023-07-28T01:18:06;5.10;;;2.30;;
1154;SDS011;566;48.414;9.118;2023-07-28T01:20:32;5.40;;;2.60;;
1154;SDS011;566;48.414;9.118;2023-07-28T01:23:20;5.50;;;2.85;;
1154;SDS011;566;48.414;9.118;2023-07-28T01:25:59;5.60;;;2.63;;
1154;SDS011;566;48.414;9.118;2023-07-28T01:28:35;9.75;;;2.65;;
1154;SDS011;566;48.414;9.118;2023-07-28T01:31:03;5.13;;;3.00;;
1154;SDS011;566;48.414;9.118;2023-07-28T01:33:29;5.50;;;2.60;;
1154;SDS011;566;48.414;9.118;2023-07-28T01:35:55;4.38;;;2.50;;
1154;SDS011;566;48.414;9.118;2023-07-28T01:38:21;5.78;;;2.90;;
1154;SDS011;566;48.414;9.118;2023-07-28T01:40:47;4.22;;;2.70;;
1154;SDS011;566;48.414;9.118;2023-07-28T01:43:12;5.68;;;2.83;;
1154;SDS011;566;48.414;9.118;2023-07-28T01:45:38;5.15;;;2.45;;
1154;SDS011;566;48.414;9.118;2023-07-28T01:48:04;6.03;;;2.80;;
1154;SDS011;566;48.414;9.118;2023-07-28T01:50:30;5.90;;;2.90;;
1154;SDS011;566;48.414;9.118;2023-07-28T01:52:56;5.20;;;2.97;;
1154;SDS011;566;48.414;9.118;2023-07-28T01:55:21;6.43;;;3.00;;
1154;SDS011;566;48.414;9.118;2023-07-28T01:57:53;5.70;;;3.25;;
1154;SDS011;566;48.414;9.118;2023-07-28T02:00:20;6.10;;;3.50;;
1154;SDS011;566;48.414;9.118;2023-07-28T02:02:46;5.55;;;3.15;;
1154;SDS011;566;48.414;9.118;2023-07-28T02:05:12;4.30;;;2.83;;
1154;SDS011;566;48.414;9.118;2023-07-28T02:07:38;6.63;;;3.72;;
1154;SDS011;566;48.414;9.118;2023-07-28T02:10:04;6.40;;;3.30;;
1154;SDS011;566;48.414;9.118;2023-07-28T02:12:30;4.68;;;2.97;;
1154;SDS011;566;48.414;9.118;2023-07-28T02:14:55;6.70;;;3.67;;
1154;SDS011;566;48.414;9.118;2023-07-28T02:17:21;5.30;;;3.35;;
1154;SDS011;566;48.414;9.118;2023-07-28T02:19:46;7.30;;;3.17;;
1154;SDS011;566;48.414;9.118;2023-07-28T02:22:12;6.50;;;3.60;;
1154;SDS011;566;48.414;9.118;2023-07-28T02:24:38;7.65;;;3.60;;
1154;SDS011;566;48.414;9.118;2023-07-28T02:27:04;5.97;;;3.55;;
1154;SDS011;566;48.414;9.118;2023-07-28T02:29:29;8.07;;;3.67;;
1154;SDS011;566;48.414;9.118;2023-07-28T02:31:55;5.57;;;2.95;;
1154;SDS011;566;48.414;9.118;2023-07-28T02:34:20;9.35;;;3.25;;
1154;SDS011;566;48.414;9.118;2023-07-28T02:36:46;5.95;;;3.75;;
1154;SDS011;566;48.414;9.118;2023-07-28T02:39:12;6.97;;;3.25;;
1154;SDS011;566;48.414;9.118;2023-07-28T02:41:38;5.60;;;2.78;;
1154;SDS011;566;48.414;9.118;2023-07-28T02:44:03;5.68;;;3.00;;
1154;SDS011;566;48.414;9.118;2023-07-28T02:46:29;5.93;;;3.10;;
1154;SDS011;566;48.414;9.118;2023-07-28T02:48:54;6.18;;;3.08;;
1154;SDS011;566;48.414;9.118;2023-07-28T02:51:20;7.53;;;2.97;;
1154;SDS011;566;48.414;9.118;2023-07-28T02:53:45;7.55;;;3.00;;
1154;SDS011;566;48.414;9.118;2023-07-28T02:56:11;5.43;;;2.88;;
1154;SDS011;566;48.414;9.118;2023-07-28T02:58:39;6.95;;;3.03;;
1154;SDS011;566;48.414;9.118;2023-07-28T03:01:05;5.13;;;3.10;;
1154;SDS011;566;48.414;9.118;2023-07-28T03:03:31;5.72;;;3.03;;
1154;SDS011;566;48.414;9.118;2023-07-28T03:05:56;5.43;;;2.97;;
1154;SDS011;566;48.414;9.118;2023-07-28T03:08:22;4.57;;;3.08;;
1154;SDS011;566;48.414;9.118;2023-07-28T03:10:47;5.50;;;2.80;;
1154;SDS011;566;48.414;9.118;2023-07-28T03:13:13;6.53;;;3.10;;
1154;SDS011;566;48.414;9.118;2023-07-28T03:15:38;5.38;;;3.17;;
1154;SDS011;566;48.414;9.118;2023-07-28T03:18:04;6.90;;;2.88;;
1154;SDS011;566;48.414;9.118;2023-07-28T03:20:30;4.78;;;2.85;;
1154;SDS011;566;48.414;9.118;2023-07-28T03:22:55;7.55;;;3.25;;
1154;SDS011;566;48.414;9.118;2023-07-28T03:25:21;5.95;;;3.00;;
1154;SDS011;566;48.414;9.118;2023-07-28T03:27:46;5.35;;;2.67;;
1154;SDS011;566;48.414;9.118;2023-07-28T03:30:12;6.57;;;2.80;;
1154;SDS011;566;48.414;9.118;2023-07-28T03:32:38;6.18;;;3.05;;
1154;SDS011;566;48.414;9.118;2023-07-28T03:35:04;5.25;;;3.22;;
1154;SDS011;566;48.414;9.118;2023-07-28T03:37:31;8.05;;;3.45;;
1154;SDS011;566;48.414;9.118;2023-07-28T03:39:57;6.53;;;3.45;;
1154;SDS011;566;48.414;9.118;2023-07-28T03:42:22;6.03;;;2.90;;
1154;SDS011;566;48.414;9.118;2023-07-28T03:44:48;6.60;;;3.00;;
1154;SDS011;566;48.414;9.118;2023-07-28T03:47:14;5.70;;;3.50;;
1154;SDS011;566;48.414;9.118;2023-07-28T03:49:44;6.68;;;2.95;;
1154;SDS011;566;48.414;9.118;2023-07-28T03:52:09;5.95;;;3.10;;
1154;SDS011;566;48.414;9.118;2023-07-28T03:54:35;6.07;;;2.90;;
1154;SDS011;566;48.414;9.118;2023-07-28T03:57:00;6.60;;;2.65;;
1154;SDS011;566;48.414;9.118;2023-07-28T03:59:26;4.85;;;2.88;;
1154;SDS011;566;48.414;9.118;2023-07-28T04:01:52;5.15;;;2.90;;
1154;SDS011;566;48.414;9.118;2023-07-28T04:04:17;4.68;;;2.50;;
1154;SDS011;566;48.414;9.118;2023-07-28T04:06:44;5.70;;;3.00;;
1154;SDS011;566;48.414;9.118;2023-07-28T04:09:16;7.15;;;2.80;;
1154;SDS011;566;48.414;9.118;2023-07-28T04:11:44;6.45;;;2.88;;
1154;SDS011;566;48.414;9.118;2023-07-28T04:14:10;5.78;;;3.03;;
1154;SDS011;566;48.414;9.118;2023-07-28T04:16:36;5.38;;;3.25;;
1154;SDS011;566;48.414;9.118;2023-07-28T04:19:02;5.68;;;3.33;;
1154;SDS011;566;48.414;9.118;2023-07-28T04:21:29;6.03;;;3.20;;
1154;SDS011;566;48.414;9.118;2023-07-28T04:24:00;6.75;;;3.10;;
1154;SDS011;566;48.414;9.118;2023-07-28T04:26:25;6.32;;;3.00;;
1154;SDS011;566;48.414;9.118;2023-07-28T04:28:51;5.15;;;2.65;;
1154;SDS011;566;48.414;9.118;2023-07-28T04:31:17;6.57;;;3.17;;
1154;SDS011;566;48.414;9.118;2023-07-28T04:33:43;5.18;;;2.85;;
1154;SDS011;566;48.414;9.118;2023-07-28T04:36:08;7.30;;;2.70;;
1154;SDS011;566;48.414;9.118;2023-07-28T04:38:34;5.32;;;2.88;;
1154;SDS011;566;48.414;9.118;2023-07-28T04:41:00;4.80;;;2.90;;
1154;SDS011;566;48.414;9.118;2023-07-28T04:43:26;5.80;;;2.80;;
1154;SDS011;566;48.414;9.118;2023-07-28T04:45:51;6.50;;;3.17;;
1154;SDS011;566;48.414;9.118;2023-07-28T04:48:17;4.65;;;2.65;;
1154;SDS011;566;48.414;9.118;2023-07-28T04:50:43;6.28;;;2.65;;
1154;SDS011;566;48.414;9.118;2023-07-28T04:53:09;5.40;;;2.92;;
1154;SDS011;566;48.414;9.118;2023-07-28T04:55:35;4.93;;;2.80;;
1154;SDS011;566;48.414;9.118;2023-07-28T04:58:00;7.40;;;2.70;;
1154;SDS011;566;48.414;9.118;2023-07-28T05:00:26;5.88;;;2.90;;
1154;SDS011;566;48.414;9.118;2023-07-28T05:02:51;5.25;;;2.70;;
1154;SDS011;566;48.414;9.118;2023-07-28T05:05:17;5.18;;;3.03;;
1154;SDS011;566;48.414;9.118;2023-07-28T05:07:43;4.78;;;3.00;;
1154;SDS011;566;48.414;9.118;2023-07-28T05:10:08;5.07;;;2.90;;
1154;SDS011;566;48.414;9.118;2023-07-28T05:12:34;4.43;;;2.80;;
1154;SDS011;566;48.414;9.118;2023-07-28T05:15:00;6.32;;;3.00;;
1154;SDS011;566;48.414;9.118;2023-07-28T05:17:26;6.55;;;2.60;;
1154;SDS011;566;48.414;9.118;2023-07-28T05:19:51;5.15;;;2.88;;
1154;SDS011;566;48.414;9.118;2023-07-28T05:22:17;6.18;;;3.20;;
1154;SDS011;566;48.414;9.118;2023-07-28T05:24:43;6.15;;;2.92;;
1154;SDS011;566;48.414;9.118;2023-07-28T05:27:09;8.60;;;3.70;;
1154;SDS011;566;48.414;9.118;2023-07-28T05:29:36;6.15;;;3.38;;
1154;SDS011;566;48.414;9.118;2023-07-28T05:32:01;7.97;;;3.50;;
1154;SDS011;566;48.414;9.118;2023-07-28T05:34:28;5.47;;;3.28;;
1154;SDS011;566;48.414;9.118;2023-07-28T05:36:54;6.60;;;3.20;;
1154;SDS011;566;48.414;9.118;2023-07-28T05:39:20;7.35;;;3.10;;
1154;SDS011;566;48.414;9.118;2023-07-28T05:41:46;6.03;;;3.00;;
1154;SDS011;566;48.414;9.118;2023-07-28T05:44:11;6.43;;;3.22;;
1154;SDS011;566;48.414;9.118;2023-07-28T05:46:37;7.53;;;3.22;;
1154;SDS011;566;48.414;9.118;2023-07-28T05:49:02;4.95;;;3.10;;
1154;SDS011;566;48.414;9.118;2023-07-28T05:51:28;5.15;;;3.10;;
1154;SDS011;566;48.414;9.118;2023-07-28T05:53:54;6.90;;;3.30;;
1154;SDS011;566;48.414;9.118;2023-07-28T05:56:20;6.18;;;3.33;;
1154;SDS011;566;48.414;9.118;2023-07-28T05:58:46;5.85;;;3.08;;
1154;SDS011;566;48.414;9.118;2023-07-28T06:01:12;7.35;;;3.22;;
1154;SDS011;566;48.414;9.118;2023-07-28T06:03:38;5.65;;;2.85;;
1154;SDS011;566;48.414;9.118;2023-07-28T06:06:04;5.97;;;3.25;;
1154;SDS011;566;48.414;9.118;2023-07-28T06:08:29;9.55;;;3.22;;
1154;SDS011;566;48.414;9.118;2023-07-28T06:14:23;6.28;;;3.60;;
1154;SDS011;566;48.414;9.118;2023-07-28T06:17:29;7.10;;;3.30;;
1154;SDS011;566;48.414;9.118;2023-07-28T06:19:55;6.78;;;3.30;;
1154;SDS011;566;48.414;9.118;2023-07-28T06:22:20;6.82;;;3.35;;
1154;SDS011;566;48.414;9.118;2023-07-28T06:24:46;6.25;;;3.42;;
1154;SDS011;566;48.414;9.118;2023-07-28T06:27:12;6.15;;;3.38;;
1154;SDS011;566;48.414;9.118;2023-07-28T06:29:38;7.22;;;3.50;;
1154;SDS011;566;48.414;9.118;2023-07-28T06:32:03;6.35;;;3.60;;
1154;SDS011;566;48.414;9.118;2023-07-28T06:34:29;8.70;;;3.15;;
1154;SDS011;566;48.414;9.118;2023-07-28T06:36:55;6.95;;;2.90;;
1154;SDS011;566;48.414;9.118;2023-07-28T06:39:20;7.47;;;3.30;;
1154;SDS011;566;48.414;9.118;2023-07-28T06:41:46;5.93;;;3.20;;
1154;SDS011;566;48.414;9.118;2023-07-28T06:44:14;5.85;;;2.85;;
1154;SDS011;566;48.414;9.118;2023-07-28T06:47:23;6.32;;;3.13;;
1154;SDS011;566;48.414;9.118;2023-07-28T06:50:04;5.22;;;2.95;;
1154;SDS011;566;48.414;9.118;2023-07-28T06:52:35;7.55;;;3.28;;
1154;SDS011;566;48.414;9.118;2023-07-28T06:55:01;5.45;;;3.10;;
1154;SDS011;566;48.414;9.118;2023-07-28T06:57:28;6.80;;;3.47;;
1154;SDS011;566;48.414;9.118;2023-07-28T06:59:53;5.78;;;3.03;;
1154;SDS011;566;48.414;9.118;2023-07-28T07:02:19;4.78;;;2.92;;
1154;SDS011;566;48.414;9.118;2023-07-28T07:04:45;8.07;;;3.15;;
1154;SDS011;566;48.414;9.118;2023-07-28T07:07:10;6.75;;;3.75;;
1154;SDS011;566;48.414;9.118;2023-07-28T07:09:36;6.93;;;3.40;;
1154;SDS011;566;48.414;9.118;2023-07-28T07:12:02;4.80;;;3.08;;
1154;SDS011;566;48.414;9.118;2023-07-28T07:14:28;6.13;;;3.28;;
1154;SDS011;566;48.414;9.118;2023-07-28T07:16:54;5.68;;;3.00;;
1154;SDS011;566;48.414;9.118;2023-07-28T07:19:19;7.40;;;2.85;;
1154;SDS011;566;48.414;9.118;2023-07-28T07:21:45;8.57;;;3.10;;
1154;SDS011;566;48.414;9.118;2023-07-28T07:24:12;6.80;;;3.17;;
1154;SDS011;566;48.414;9.118;2023-07-28T07:26:40;5.82;;;3.20;;
1154;SDS011;566;48.414;9.118;2023-07-28T07:29:07;6.35;;;3.50;;
1154;SDS011;566;48.414;9.118;2023-07-28T07:31:33;5.20;;;3.05;;
1154;SDS011;566;48.414;9.118;2023-07-28T07:33:59;4.82;;;2.75;;
1154;SDS011;566;48.414;9.118;2023-07-28T07:36:25;6.10;;;2.90;;
1154;SDS011;566;48.414;9.118;2023-07-28T07:38:50;6.32;;;2.80;;
1154;SDS011;566;48.414;9.118;2023-07-28T07:41:16;9.27;;;3.63;;
1154;SDS011;566;48.414;9.118;2023-07-28T07:43:45;7.03;;;3.33;;
1154;SDS011;566;48.414;9.118;2023-07-28T07:46:11;6.30;;;2.95;;
1154;SDS011;566;48.414;9.118;2023-07-28T07:48:37;6.07;;;2.97;;
1154;SDS011;566;48.414;9.118;2023-07-28T07:51:03;6.15;;;3.10;;
1154;SDS011;566;48.414;9.118;2023-07-28T07:53:29;4.60;;;2.70;;
1154;SDS011;566;48.414;9.118;2023-07-28T07:55:54;6.88;;;3.15;;
1154;SDS011;566;48.414;9.118;2023-07-28T07:58:20;5.95;;;3.20;;
1154;SDS011;566;48.414;9.118;2023-07-28T08:00:45;5.07;;;2.70;;
1154;SDS011;566;48.414;9.118;2023-07-28T08:03:11;4.72;;;2.95;;
1154;SDS011;566;48.414;9.118;2023-07-28T08:05:37;5.63;;;3.13;;
1154;SDS011;566;48.414;9.118;2023-07-28T08:08:02;6.47;;;2.85;;
1154;SDS011;566;48.414;9.118;2023-07-28T08:10:30;5.57;;;3.25;;
1154;SDS011;566;48.414;9.118;2023-07-28T08:12:56;6.63;;;3.30;;
1154;SDS011;566;48.414;9.118;2023-07-28T08:15:22;4.78;;;3.08;;
1154;SDS011;566;48.414;9.118;2023-07-28T08:17:47;8.05;;;2.95;;
1154;SDS011;566;48.414;9.118;2023-07-28T08:20:13;5.57;;;3.22;;
1154;SDS011;566;48.414;9.118;2023-07-28T08:22:39;6.95;;;2.80;;
1154;SDS011;566;48.414;9.118;2023-07-28T08:25:04;6.60;;;2.92;;
1154;SDS011;566;48.414;9.118;2023-07-28T08:27:30;4.25;;;2.55;;
1154;SDS011;566;48.414;9.118;2023-07-28T08:29:56;5.57;;;2.50;;
1154;SDS011;566;48.414;9.118;2023-07-28T08:32:21;5.07;;;2.60;;
1154;SDS011;566;48.414;9.118;2023-07-28T08:34:47;9.90;;;6.63;;
1154;SDS011;566;48.414;9.118;2023-07-28T08:37:13;6.18;;;3.25;;
1154;SDS011;566;48.414;9.118;2023-07-28T08:39:39;4.90;;;2.47;;
1154;SDS011;566;48.414;9.118;2023-07-28T08:42:04;4.97;;;2.47;;
1154;SDS011;566;48.414;9.118;2023-07-28T08:44:34;5.28;;;2.42;;
1154;SDS011;566;48.414;9.118;2023-07-28T08:47:00;5.35;;;2.65;;
1154;SDS011;566;48.414;9.118;2023-07-28T08:49:26;6.43;;;2.60;;
1154;SDS011;566;48.414;9.118;2023-07-28T08:51:52;4.85;;;2.72;;
1154;SDS011;566;48.414;9.118;2023-07-28T08:54:23;5.25;;;2.92;;
1154;SDS011;566;48.414;9.118;2023-07-28T08:56:49;5.97;;;2.72;;
1154;SDS011;566;48.414;9.118;2023-07-28T08:59:25;7.82;;;3.00;;
1154;SDS011;566;48.414;9.118;2023-07-28T09:01:54;5.85;;;2.60;;
1154;SDS011;566;48.414;9.118;2023-07-28T09:04:20;7.03;;;2.70;;
1154;SDS011;566;48.414;9.118;2023-07-28T09:06:47;4.30;;;2.50;;
1154;SDS011;566;48.414;9.118;2023-07-28T09:09:14;5.18;;;3.00;;
1154;SDS011;566;48.414;9.118;2023-07-28T09:11:44;4.57;;;2.53;;
1154;SDS011;566;48.414;9.118;2023-07-28T09:14:11;4.68;;;2.80;;
1154;SDS011;566;48.414;9.118;2023-07-28T09:16:37;6.82;;;2.80;;
1154;SDS011;566;48.414;9.118;2023-07-28T09:19:06;6.88;;;2.78;;
1154;SDS011;566;48.414;9.118;2023-07-28T09:21:33;4.72;;;2.65;;
1154;SDS011;566;48.414;9.118;2023-07-28T09:24:05;4.70;;;2.58;;
1154;SDS011;566;48.414;9.118;2023-07-28T09:26:41;5.38;;;2.60;;
1154;SDS011;566;48.414;9.118;2023-07-28T09:31:45;7.05;;;2.80;;
1154;SDS011;566;48.414;9.118;2023-07-28T09:34:12;6.05;;;2.85;;
1154;SDS011;566;48.414;9.118;2023-07-28T09:36:49;5.25;;;2.65;;
1154;SDS011;566;48.414;9.118;2023-07-28T09:39:15;5.18;;;2.97;;
1154;SDS011;566;48.414;9.118;2023-07-28T09:41:44;6.13;;;2.80;;
1154;SDS011;566;48.414;9.118;2023-07-28T09:44:11;6.65;;;3.33;;
1154;SDS011;566;48.414;9.118;2023-07-28T09:46:37;5.28;;;2.92;;
1154;SDS011;566;48.414;9.118;2023-07-28T09:49:21;4.70;;;2.50;;
1154;SDS011;566;48.414;9.118;2023-07-28T09:52:00;5.75;;;2.95;;
1154;SDS011;566;48.414;9.118;2023-07-28T09:57:03;7.47;;;3.15;;
1154;SDS011;566;48.414;9.118;2023-07-28T09:59:32;5.10;;;2.60;;
1154;SDS011;566;48.414;9.118;2023-07-28T10:02:01;5.90;;;2.80;;
1154;SDS011;566;48.414;9.118;2023-07-28T10:04:27;5.82;;;2.95;;
1154;SDS011;566;48.414;9.118;2023-07-28T10:06:54;6.85;;;3.15;;
1154;SDS011;566;48.414;9.118;2023-07-28T10:09:23;5.57;;;2.70;;
1154;SDS011;566;48.414;9.118;2023-07-28T10:11:49;4.65;;;2.47;;
1154;SDS011;566;48.414;9.118;2023-07-28T10:14:28;5.32;;;2.63;;
1154;SDS011;566;48.414;9.118;2023-07-28T10:16:57;6.78;;;2.63;;
1154;SDS011;566;48.414;9.118;2023-07-28T10:19:26;4.88;;;2.35;;
1154;SDS011;566;48.414;9.118;2023-07-28T10:22:02;5.53;;;2.95;;
1154;SDS011;566;48.414;9.118;2023-07-28T10:30:12;4.90;;;2.70;;
1154;SDS011;566;48.414;9.118;2023-07-28T10:32:43;5.50;;;2.88;;
1154;SDS011;566;48.414;9.118;2023-07-28T10:37:39;5.28;;;2.95;;
1154;SDS011;566;48.414;9.118;2023-07-28T10:40:28;5.50;;;2.72;;
1154;SDS011;566;48.414;9.118;2023-07-28T10:43:00;5.03;;;2.70;;
1154;SDS011;566;48.414;9.118;2023-07-28T10:45:28;5.32;;;2.80;;
1154;SDS011;566;48.414;9.118;2023-07-28T10:47:55;10.52;;;3.30;;
1154;SDS011;566;48.414;9.118;2023-07-28T10:50:25;4.38;;;2.70;;
1154;SDS011;566;48.414;9.118;2023-07-28T10:52:55;5.88;;;2.70;;
1154;SDS011;566;48.414;9.118;2023-07-28T10:55:22;4.97;;;3.00;;
1154;SDS011;566;48.414;9.118;2023-07-28T10:57:49;5.65;;;3.13;;
1154;SDS011;566;48.414;9.118;2023-07-28T11:00:17;5.97;;;2.80;;
1154;SDS011;566;48.414;9.118;2023-07-28T11:02:50;4.63;;;2.67;;
1154;SDS011;566;48.414;9.118;2023-07-28T11:05:27;6.50;;;3.15;;
1154;SDS011;566;48.414;9.118;2023-07-28T11:07:55;5.93;;;2.97;;
1154;SDS011;566;48.414;9.118;2023-07-28T11:10:30;6.22;;;2.97;;
1154;SDS011;566;48.414;9.118;2023-07-28T11:12:57;5.28;;;2.40;;
1154;SDS011;566;48.414;9.118;2023-07-28T11:15:25;5.28;;;3.28;;
1154;SDS011;566;48.414;9.118;2023-07-28T11:17:51;4.45;;;2.65;;
1154;SDS011;566;48.414;9.118;2023-07-28T11:20:21;5.32;;;2.97;;
1154;SDS011;566;48.414;9.118;2023-07-28T11:22:57;8.43;;;3.60;;
1154;SDS011;566;48.414;9.118;2023-07-28T11:25:31;6.40;;;3.38;;
1154;SDS011;566;48.414;9.118;2023-07-28T11:27:57;4.63;;;2.63;;
1154;SDS011;566;48.414;9.118;2023-07-28T11:30:26;4.85;;;2.63;;
1154;SDS011;566;48.414;9.118;2023-07-28T11:32:52;6.43;;;3.00;;
1154;SDS011;566;48.414;9.118;2023-07-28T11:35:19;6.00;;;3.20;;
1154;SDS011;566;48.414;9.118;2023-07-28T11:37:48;5.45;;;3.03;;
1154;SDS011;566;48.414;9.118;2023-07-28T11:40:16;5.80;;;2.83;;
1154;SDS011;566;48.414;9.118;2023-07-28T11:42:48;5.78;;;3.00;;
1154;SDS011;566;48.414;9.118;2023-07-28T11:45:16;5.20;;;2.92;;
1154;SDS011;566;48.414;9.118;2023-07-28T11:47:56;5.43;;;3.00;;
1154;SDS011;566;48.414;9.118;2023-07-28T11:52:54;6.30;;;3.10;;
1154;SDS011;566;48.414;9.118;2023-07-28T11:55:21;5.47;;;2.85;;
1154;SDS011;566;48.414;9.118;2023-07-28T11:57:48;6.43;;;2.58;;
1154;SDS011;566;48.414;9.118;2023-07-28T12:00:14;5.55;;;2.78;;
1154;SDS011;566;48.414;9.118;2023-07-28T12:02:51;4.85;;;2.83;;
1154;SDS011;566;48.414;9.118;2023-07-28T12:05:35;6.05;;;2.72;;
1154;SDS011;566;48.414;9.118;2023-07-28T12:08:05;5.60;;;3.17;;
1154;SDS011;566;48.414;9.118;2023-07-28T12:10:32;5.18;;;2.90;;
1154;SDS011;566;48.414;9.118;2023-07-28T12:13:03;5.25;;;2.80;;
1154;SDS011;566;48.414;9.118;2023-07-28T12:15:40;5.43;;;2.90;;
1154;SDS011;566;48.414;9.118;2023-07-28T12:18:07;5.97;;;2.70;;
1154;SDS011;566;48.414;9.118;2023-07-28T12:20:42;5.45;;;2.80;;
1154;SDS011;566;48.414;9.118;2023-07-28T12:23:22;5.13;;;2.87;;
1154;SDS011;566;48.414;9.118;2023-07-28T12:25:48;4.47;;;2.78;;
1154;SDS011;566;48.414;9.118;2023-07-28T12:28:20;5.22;;;3.15;;
1154;SDS011;566;48.414;9.118;2023-07-28T12:30:46;5.43;;;3.03;;
1154;SDS011;566;48.414;9.118;2023-07-28T12:33:14;6.05;;;2.80;;
1154;SDS011;566;48.414;9.118;2023-07-28T12:35:39;7.10;;;3.03;;
1154;SDS011;566;48.414;9.118;2023-07-28T12:38:05;5.35;;;2.80;;
1154;SDS011;566;48.414;9.118;2023-07-28T12:40:31;5.20;;;3.00;;
1154;SDS011;566;48.414;9.118;2023-07-28T12:42:58;7.95;;;3.50;;
1154;SDS011;566;48.414;9.118;2023-07-28T12:45:24;5.50;;;3.00;;
1154;SDS011;566;48.414;9.118;2023-07-28T12:47:54;5.07;;;3.03;;
1154;SDS011;566;48.414;9.118;2023-07-28T12:50:20;6.45;;;2.55;;
1154;SDS011;566;48.414;9.118;2023-07-28T12:52:47;6.13;;;2.92;;
1154;SDS011;566;48.414;9.118;2023-07-28T12:55:13;6.15;;;3.30;;
1154;SDS011;566;48.414;9.118;2023-07-28T12:57:43;5.35;;;2.80;;
1154;SDS011;566;48.414;9.118;2023-07-28T13:00:09;4.82;;;2.60;;
1154;SDS011;566;48.414;9.118;2023-07-28T13:02:39;5.15;;;2.83;;
1154;SDS011;566;48.414;9.118;2023-07-28T13:05:06;6.13;;;2.80;;
1154;SDS011;566;48.414;9.118;2023-07-28T13:07:32;4.70;;;2.85;;
1154;SDS011;566;48.414;9.118;2023-07-28T13:10:05;4.70;;;3.00;;
1154;SDS011;566;48.414;9.118;2023-07-28T13:12:32;4.97;;;2.88;;
1154;SDS011;566;48.414;9.118;2023-07-28T13:14:57;5.05;;;2.75;;
1154;SDS011;566;48.414;9.118;2023-07-28T13:17:23;5.07;;;2.97;;
1154;SDS011;566;48.414;9.118;2023-07-28T13:19:48;5.57;;;2.42;;
1154;SDS011;566;48.414;9.118;2023-07-28T13:22:14;5.50;;;3.00;;
1154;SDS011;566;48.414;9.118;2023-07-28T13:24:39;8.20;;;3.05;;
1154;SDS011;566;48.414;9.118;2023-07-28T13:27:06;6.25;;;3.50;;
1154;SDS011;566;48.414;9.118;2023-07-28T13:29:32;6.47;;;3.63;;
1154;SDS011;566;48.414;9.118;2023-07-28T13:31:58;6.38;;;3.53;;
1154;SDS011;566;48.414;9.118;2023-07-28T13:34:27;6.50;;;3.90;;
1154;SDS011;566;48.414;9.118;2023-07-28T13:36:53;5.75;;;3.72;;
1154;SDS011;566;48.414;9.118;2023-07-28T13:39:22;6.03;;;3.67;;
1154;SDS011;566;48.414;9.118;2023-07-28T13:41:48;8.10;;;3.92;;
1154;SDS011;566;48.414;9.118;2023-07-28T13:44:14;6.50;;;3.70;;
1154;SDS011;566;48.414;9.118;2023-07-28T13:46:40;9.05;;;4.00;;
1154;SDS011;566;48.414;9.118;2023-07-28T13:49:05;5.78;;;3.85;;
1154;SDS011;566;48.414;9.118;2023-07-28T13:51:31;6.78;;;3.60;;
1154;SDS011;566;48.414;9.118;2023-07-28T13:53:56;9.05;;;4.13;;
1154;SDS011;566;48.414;9.118;2023-07-28T13:56:22;6.63;;;3.63;;
1154;SDS011;566;48.414;9.118;2023-07-28T13:58:48;5.95;;;3.20;;
1154;SDS011;566;48.414;9.118;2023-07-28T14:01:13;5.63;;;3.42;;
1154;SDS011;566;48.414;9.118;2023-07-28T14:03:39;5.82;;;3.75;;
1154;SDS011;566;48.414;9.118;2023-07-28T14:06:05;9.05;;;3.58;;
1154;SDS011;566;48.414;9.118;2023-07-28T14:08:30;7.68;;;3.80;;
1154;SDS011;566;48.414;9.118;2023-07-28T14:10:56;6.43;;;4.15;;
1154;SDS011;566;48.414;9.118;2023-07-28T14:13:21;7.63;;;4.07;;
1154;SDS011;566;48.414;9.118;2023-07-28T14:15:48;6.15;;;3.90;;
1154;SDS011;566;48.414;9.118;2023-07-28T14:18:16;6.68;;;4.35;;
1154;SDS011;566;48.414;9.118;2023-07-28T14:20:42;6.10;;;4.07;;
1154;SDS011;566;48.414;9.118;2023-07-28T14:23:23;8.27;;;4.15;;
1154;SDS011;566;48.414;9.118;2023-07-28T14:25:51;6.07;;;3.70;;
1154;SDS011;566;48.414;9.118;2023-07-28T14:28:18;5.28;;;3.40;;
1154;SDS011;566;48.414;9.118;2023-07-28T14:30:44;7.22;;;3.80;;
1154;SDS011;566;48.414;9.118;2023-07-28T14:33:14;5.30;;;3.30;;
1154;SDS011;566;48.414;9.118;2023-07-28T14:35:41;5.85;;;3.60;;
1154;SDS011;566;48.414;9.118;2023-07-28T14:38:10;5.60;;;3.40;;
1154;SDS011;566;48.414;9.118;2023-07-28T14:40:36;6.80;;;3.60;;
1154;SDS011;566;48.414;9.118;2023-07-28T14:43:05;5.70;;;3.50;;
1154;SDS011;566;48.414;9.118;2023-07-28T14:45:31;7.25;;;3.70;;
1154;SDS011;566;48.414;9.118;2023-07-28T14:47:57;6.70;;;3.20;;
1154;SDS011;566;48.414;9.118;2023-07-28T14:50:23;6.15;;;3.05;;
1154;SDS011;566;48.414;9.118;2023-07-28T14:52:49;6.25;;;3.30;;
1154;SDS011;566;48.414;9.118;2023-07-28T14:55:14;5.95;;;3.75;;
1154;SDS011;566;48.414;9.118;2023-07-28T14:57:40;5.85;;;3.25;;
1154;SDS011;566;48.414;9.118;2023-07-28T15:00:06;6.75;;;3.10;;
1154;SDS011;566;48.414;9.118;2023-07-28T15:05:22;6.00;;;3.75;;
1154;SDS011;566;48.414;9.118;2023-07-28T15:07:47;5.70;;;3.42;;
1154;SDS011;566;48.414;9.118;2023-07-28T15:10:13;5.20;;;3.30;;
1154;SDS011;566;48.414;9.118;2023-07-28T15:12:38;6.50;;;3.17;;
1154;SDS011;566;48.414;9.118;2023-07-28T15:15:04;6.60;;;3.60;;
1154;SDS011;566;48.414;9.118;2023-07-28T15:17:30;5.07;;;3.33;;
1154;SDS011;566;48.414;9.118;2023-07-28T15:19:56;5.22;;;3.33;;
1154;SDS011;566;48.414;9.118;2023-07-28T15:22:21;5.18;;;3.20;;
1154;SDS011;566;48.414;9.118;2023-07-28T15:24:47;6.15;;;3.20;;
1154;SDS011;566;48.414;9.118;2023-07-28T15:27:12;5.78;;;3.50;;
1154;SDS011;566;48.414;9.118;2023-07-28T15:29:38;5.43;;;3.20;;
1154;SDS011;566;48.414;9.118;2023-07-28T15:32:04;7.05;;;4.05;;
1154;SDS011;566;48.414;9.118;2023-07-28T15:34:29;6.35;;;3.65;;
1154;SDS011;566;48.414;9.118;2023-07-28T15:36:56;5.97;;;3.38;;
1154;SDS011;566;48.414;9.118;2023-07-28T15:39:24;5.63;;;3.45;;
1154;SDS011;566;48.414;9.118;2023-07-28T15:41:50;6.88;;;4.07;;
1154;SDS011;566;48.414;9.118;2023-07-28T15:44:15;6.57;;;3.83;;
1154;SDS011;566;48.414;9.118;2023-07-28T15:46:41;8.07;;;4.53;;
1154;SDS011;566;48.414;9.118;2023-07-28T15:49:06;7.88;;;3.92;;
1154;SDS011;566;48.414;9.118;2023-07-28T15:51:32;6.88;;;3.72;;
1154;SDS011;566;48.414;9.118;2023-07-28T15:53:58;8.02;;;3.88;;